TSS weather

East 34th Street Heliport
New York, New York, United States

Public forecast

Using degrees Fahrenheit for public forecast. Weather courtesy of forecast.io.

METAR (pilot weather report)

Closest report is La Guardia Airport, 5.0 nm (9.2 km) ENE. Retrieved 2019/05/26 10:26 UTC (14 minutes ago):

KLGA 261026Z VRB05KT 8SM BKN014 BKN090 BKN130 BKN250 18/14 A2995 RMK AO2 T01830144 $

TAF (pilot weather forecast)

Closest forecast is La Guardia Airport, 5.0 nm (9.2 km) ENE. Retrieved 2019/05/26 06:24 UTC (4 hours ago):

TAF KLGA 260521Z 2606/2712 19009KT P6SM VCSH BKN025 BKN040 FM260800 22009KT P6SM SCT007 BKN015 OVC040 FM261300 28008KT P6SM SCT015 SCT050 FM261600 28012G19KT P6SM FEW050 SCT250 FM262300 31011G18KT P6SM SCT060 BKN200 FM270200 34009KT P6SM SCT060 BKN150 FM270700 36007KT P6SM SCT060 BKN150